createdAt,value
2019-05-26T00:01:40.061Z,9.80
2019-05-26T00:04:08.447Z,9.80
2019-05-26T00:06:36.859Z,9.80
2019-05-26T00:09:06.687Z,9.80
2019-05-26T00:11:35.107Z,9.80
2019-05-26T00:14:03.507Z,9.80
2019-05-26T00:16:31.898Z,9.70
2019-05-26T00:19:00.673Z,9.70
2019-05-26T00:21:29.111Z,9.60
2019-05-26T00:23:57.511Z,9.60
2019-05-26T00:26:26.220Z,9.50
2019-05-26T00:28:55.043Z,9.40
2019-05-26T00:31:23.551Z,9.40
2019-05-26T00:33:52.026Z,9.30
2019-05-26T00:36:20.510Z,9.20
2019-05-26T00:38:48.942Z,9.20
2019-05-26T00:41:17.555Z,9.10
2019-05-26T00:43:45.946Z,9.00
2019-05-26T00:46:14.369Z,9.00
2019-05-26T00:48:43.026Z,8.90
2019-05-26T00:51:11.456Z,8.90
2019-05-26T00:53:39.866Z,8.80
2019-05-26T00:56:08.320Z,8.80
2019-05-26T00:58:36.739Z,8.70
2019-05-26T01:01:05.379Z,8.70
2019-05-26T01:03:33.774Z,8.70
2019-05-26T01:06:04.983Z,8.70
2019-05-26T01:08:33.526Z,8.70
2019-05-26T01:11:01.972Z,8.60
2019-05-26T01:13:30.447Z,8.60
2019-05-26T01:15:58.894Z,8.60
2019-05-26T01:18:27.322Z,8.60
2019-05-26T01:20:55.717Z,8.60
2019-05-26T01:23:24.131Z,8.50
2019-05-26T01:25:52.578Z,8.50
2019-05-26T01:28:22.283Z,8.50
2019-05-26T01:30:50.982Z,9.60
2019-05-26T01:33:19.384Z,8.50
2019-05-26T01:35:48.222Z,8.40
2019-05-26T01:38:23.944Z,8.40
2019-05-26T01:40:47.462Z,8.40
2019-05-26T01:43:16.153Z,8.30
2019-05-26T01:45:44.569Z,8.30
2019-05-26T01:48:12.960Z,8.20
2019-05-26T01:50:41.517Z,8.20
2019-05-26T01:53:10.032Z,8.20
2019-05-26T01:55:38.411Z,8.20
2019-05-26T01:58:07.003Z,8.10
2019-05-26T02:00:35.735Z,8.10
2019-05-26T02:03:04.700Z,8.10
2019-05-26T02:05:33.403Z,8.10
2019-05-26T02:08:02.067Z,8.00
2019-05-26T02:10:30.462Z,7.90
2019-05-26T02:12:58.863Z,7.90
2019-05-26T02:15:28.666Z,7.90
2019-05-26T02:17:57.272Z,7.80
2019-05-26T02:20:25.958Z,7.80
2019-05-26T02:22:54.390Z,7.80
2019-05-26T02:25:23.328Z,7.70
2019-05-26T02:27:51.747Z,7.70
2019-05-26T02:30:20.763Z,7.70
2019-05-26T02:32:49.178Z,7.60
2019-05-26T02:35:18.024Z,7.60
2019-05-26T02:37:46.420Z,7.60
2019-05-26T02:40:15.704Z,7.50
2019-05-26T02:42:44.213Z,7.50
2019-05-26T02:45:16.911Z,7.50
2019-05-26T02:47:46.240Z,7.50
2019-05-26T02:50:16.768Z,7.40
2019-05-26T02:52:45.467Z,7.40
2019-05-26T02:55:15.518Z,7.40
2019-05-26T02:57:43.926Z,7.50
2019-05-26T03:00:14.877Z,7.50
2019-05-26T03:02:43.519Z,7.50
2019-05-26T03:05:12.384Z,7.40
2019-05-26T03:07:43.030Z,7.40
2019-05-26T03:10:13.156Z,7.40
2019-05-26T03:12:42.411Z,7.40
2019-05-26T03:15:13.505Z,7.40
2019-05-26T03:17:42.620Z,7.30
2019-05-26T03:20:13.960Z,7.30
2019-05-26T03:22:43.097Z,7.30
2019-05-26T03:25:12.704Z,7.30
2019-05-26T03:27:41.349Z,7.30
2019-05-26T03:30:10.182Z,7.20
2019-05-26T03:32:38.671Z,7.20
2019-05-26T03:35:08.919Z,7.20
2019-05-26T03:37:37.351Z,7.20
2019-05-26T03:40:08.320Z,7.30
2019-05-26T03:42:36.727Z,7.30
2019-05-26T03:45:07.368Z,7.20
2019-05-26T03:47:35.782Z,7.30
2019-05-26T03:50:06.758Z,7.30
2019-05-26T03:52:35.218Z,7.30
2019-05-26T03:55:04.744Z,7.30
2019-05-26T03:57:33.188Z,7.30
2019-05-26T04:00:01.626Z,7.40
2019-05-26T04:02:30.313Z,7.40
2019-05-26T04:04:58.710Z,7.40
2019-05-26T04:07:27.183Z,7.50
2019-05-26T04:10:04.579Z,7.50
2019-05-26T04:12:25.723Z,7.50
2019-05-26T04:14:54.130Z,7.50
2019-05-26T04:17:22.598Z,7.60
2019-05-26T04:19:51.014Z,7.60
2019-05-26T04:22:19.421Z,7.60
2019-05-26T04:24:47.817Z,7.70
2019-05-26T04:27:16.220Z,7.70
2019-05-26T04:29:44.615Z,7.80
2019-05-26T04:32:13.027Z,7.80
2019-05-26T04:34:41.424Z,7.90
2019-05-26T04:37:09.863Z,7.90
2019-05-26T04:39:38.343Z,8.00
2019-05-26T04:42:06.812Z,8.00
2019-05-26T04:44:35.223Z,8.00
2019-05-26T04:47:03.656Z,8.10
2019-05-26T04:49:37.045Z,8.20
2019-05-26T04:52:02.315Z,8.20
2019-05-26T04:54:30.707Z,8.30
2019-05-26T04:56:59.118Z,8.30
2019-05-26T04:59:27.518Z,8.40
2019-05-26T05:01:55.991Z,8.40
2019-05-26T05:04:24.399Z,8.50
2019-05-26T05:06:53.304Z,8.60
2019-05-26T05:09:21.771Z,8.60
2019-05-26T05:11:50.159Z,8.70
2019-05-26T05:14:18.572Z,8.80
2019-05-26T05:16:46.963Z,8.90
2019-05-26T05:19:15.359Z,9.10
2019-05-26T05:21:43.774Z,9.20
2019-05-26T05:24:12.258Z,9.30
2019-05-26T05:26:40.659Z,9.40
2019-05-26T05:29:09.058Z,9.50
2019-05-26T05:31:37.538Z,9.60
2019-05-26T05:34:05.959Z,9.70
2019-05-26T05:36:34.759Z,9.80
2019-05-26T05:39:05.167Z,9.80
2019-05-26T05:41:33.574Z,9.90
2019-05-26T05:44:02.032Z,10.00
2019-05-26T05:46:30.471Z,10.10
2019-05-26T05:48:58.891Z,10.10
2019-05-26T05:51:27.340Z,10.20
2019-05-26T05:53:55.751Z,10.30
2019-05-26T05:56:24.169Z,10.40
2019-05-26T05:58:52.588Z,10.50
2019-05-26T06:01:21.077Z,10.60
2019-05-26T06:03:49.486Z,10.70
2019-05-26T06:06:17.906Z,10.90
2019-05-26T06:08:46.308Z,11.00
2019-05-26T06:11:16.978Z,11.10
2019-05-26T06:13:44.858Z,11.30
2019-05-26T06:16:13.292Z,11.40
2019-05-26T06:19:01.132Z,11.60
2019-05-26T06:21:29.642Z,11.70
2019-05-26T06:23:58.058Z,11.90
2019-05-26T06:26:26.771Z,12.00
2019-05-26T06:28:55.263Z,12.10
2019-05-26T06:31:23.843Z,12.30
2019-05-26T06:33:52.490Z,12.40
2019-05-26T06:36:22.064Z,12.50
2019-05-26T06:38:50.480Z,12.60
2019-05-26T06:41:32.394Z,12.70
2019-05-26T06:43:49.074Z,12.90
2019-05-26T06:46:17.558Z,13.00
2019-05-26T06:48:45.940Z,13.10
2019-05-26T06:51:14.342Z,13.20
2019-05-26T06:53:43.008Z,13.30
2019-05-26T06:56:11.545Z,13.40
2019-05-26T06:58:39.957Z,13.50
2019-05-26T07:01:08.716Z,13.70
2019-05-26T07:03:37.355Z,13.80
2019-05-26T07:06:05.750Z,14.00
2019-05-26T07:08:34.175Z,14.10
2019-05-26T07:11:02.588Z,14.10
2019-05-26T07:13:31.009Z,14.20
2019-05-26T07:15:59.415Z,14.30
2019-05-26T07:18:27.982Z,14.40
2019-05-26T07:20:57.151Z,14.40
2019-05-26T07:23:25.715Z,14.50
2019-05-26T07:25:54.128Z,14.60
2019-05-26T07:28:22.622Z,14.70
2019-05-26T07:30:51.213Z,14.80
2019-05-26T07:33:19.718Z,15.00
2019-05-26T07:35:49.936Z,15.10
2019-05-26T07:38:18.351Z,15.20
2019-05-26T07:40:46.758Z,15.30
2019-05-26T07:43:15.495Z,15.40
2019-05-26T07:45:43.905Z,15.50
2019-05-26T07:48:12.301Z,15.60
2019-05-26T07:50:40.719Z,15.70
2019-05-26T07:53:09.133Z,15.80
2019-05-26T07:55:37.775Z,15.90
2019-05-26T07:58:06.266Z,16.00
2019-05-26T08:00:34.757Z,16.20
2019-05-26T08:03:03.226Z,16.30
2019-05-26T08:05:31.770Z,16.40
2019-05-26T08:08:12.205Z,16.60
2019-05-26T08:10:30.688Z,16.70
2019-05-26T08:12:59.181Z,16.90
2019-05-26T08:15:27.567Z,17.00
2019-05-26T08:17:55.986Z,17.10
2019-05-26T08:20:24.574Z,17.20
2019-05-26T08:22:52.972Z,17.30
2019-05-26T08:25:21.367Z,17.30
2019-05-26T08:27:49.777Z,17.40
2019-05-26T08:30:19.248Z,17.50
2019-05-26T08:32:47.650Z,17.60
2019-05-26T08:35:16.062Z,17.70
2019-05-26T08:37:44.457Z,17.70
2019-05-26T08:40:19.274Z,17.80
2019-05-26T08:42:48.795Z,17.80
2019-05-26T08:45:21.225Z,17.90
2019-05-26T08:47:47.823Z,17.90
2019-05-26T08:50:16.891Z,18.00
2019-05-26T08:52:45.451Z,18.00
2019-05-26T08:55:14.084Z,18.10
2019-05-26T08:57:42.475Z,18.10
2019-05-26T09:00:11.427Z,18.10
2019-05-26T09:02:39.814Z,18.20
2019-05-26T09:05:08.644Z,18.20
2019-05-26T09:07:37.047Z,18.20
2019-05-26T09:10:05.795Z,18.30
2019-05-26T09:12:34.206Z,18.50
2019-05-26T09:15:02.937Z,18.50
2019-05-26T09:17:31.336Z,18.50
2019-05-26T09:19:59.831Z,18.40
2019-05-26T09:22:28.282Z,18.40
2019-05-26T09:24:56.676Z,18.40
2019-05-26T09:27:25.090Z,18.60
2019-05-26T09:29:53.508Z,18.90
2019-05-26T09:32:21.898Z,19.10
2019-05-26T09:34:50.297Z,19.20
2019-05-26T09:37:18.705Z,19.40
2019-05-26T09:39:47.119Z,19.60
2019-05-26T09:42:15.518Z,19.80
2019-05-26T09:44:44.580Z,19.90
2019-05-26T09:47:13.259Z,20.00
2019-05-26T09:49:41.654Z,20.00
2019-05-26T09:52:10.059Z,19.90
2019-05-26T09:54:38.527Z,19.80
2019-05-26T09:57:07.187Z,19.80
2019-05-26T09:59:35.582Z,19.90
2019-05-26T10:02:04.449Z,19.90
2019-05-26T10:04:32.827Z,20.00
2019-05-26T10:07:01.247Z,20.00
2019-05-26T10:09:29.800Z,19.90
2019-05-26T10:11:58.382Z,19.90
2019-05-26T10:14:26.836Z,19.90
2019-05-26T10:16:55.259Z,20.10
2019-05-26T10:19:23.664Z,20.40
2019-05-26T10:21:52.131Z,20.60
2019-05-26T10:24:20.538Z,20.70
2019-05-26T10:26:48.946Z,20.80
2019-05-26T10:29:17.439Z,20.90
2019-05-26T10:31:45.822Z,21.00
2019-05-26T10:34:14.483Z,21.10
2019-05-26T10:36:42.874Z,21.40
2019-05-26T10:39:11.392Z,21.60
2019-05-26T10:41:39.799Z,21.90
2019-05-26T10:44:08.199Z,22.20
2019-05-26T10:46:36.603Z,22.30
2019-05-26T10:49:05.088Z,22.30
2019-05-26T10:51:33.478Z,22.30
2019-05-26T10:54:01.917Z,22.10
2019-05-26T10:56:30.367Z,21.90
2019-05-26T10:58:58.939Z,21.80
2019-05-26T11:01:27.431Z,21.60
2019-05-26T11:03:55.845Z,21.60
2019-05-26T11:06:24.357Z,21.60
2019-05-26T11:08:52.787Z,21.70
2019-05-26T11:11:21.462Z,21.90
2019-05-26T11:14:01.877Z,22.00
2019-05-26T11:16:20.047Z,22.00
2019-05-26T11:18:48.434Z,22.00
2019-05-26T11:21:17.089Z,22.00
2019-05-26T11:23:45.497Z,22.00
2019-05-26T11:26:14.131Z,22.00
2019-05-26T11:28:42.534Z,22.00
2019-05-26T11:31:10.954Z,22.00
2019-05-26T11:33:39.625Z,21.80
2019-05-26T11:36:08.060Z,21.70
2019-05-26T11:38:36.485Z,21.70
2019-05-26T11:41:04.875Z,21.70
2019-05-26T11:43:33.507Z,21.70
2019-05-26T11:46:02.014Z,21.70
2019-05-26T11:48:30.451Z,21.80
2019-05-26T11:50:58.857Z,21.70
2019-05-26T11:53:27.306Z,21.70
2019-05-26T11:55:55.722Z,21.80
2019-05-26T11:58:24.130Z,21.90
2019-05-26T12:00:52.526Z,22.10
2019-05-26T12:03:20.923Z,22.40
2019-05-26T12:05:49.338Z,22.60
2019-05-26T12:08:17.774Z,22.80
2019-05-26T12:10:46.190Z,22.90
2019-05-26T12:13:14.651Z,23.00
2019-05-26T12:15:43.293Z,23.10
2019-05-26T12:18:11.717Z,23.10
2019-05-26T12:20:40.180Z,23.10
2019-05-26T12:23:08.650Z,23.10
2019-05-26T12:25:37.076Z,22.90
2019-05-26T12:28:05.530Z,22.70
2019-05-26T12:30:33.942Z,22.60
2019-05-26T12:33:02.427Z,22.60
2019-05-26T12:35:40.918Z,22.60
2019-05-26T12:38:09.385Z,22.60
2019-05-26T12:40:38.020Z,22.60
2019-05-26T12:43:06.414Z,22.60
2019-05-26T12:45:35.186Z,22.60
2019-05-26T12:48:03.779Z,22.60
2019-05-26T12:50:32.182Z,22.50
2019-05-26T12:53:00.598Z,22.50
2019-05-26T12:55:28.994Z,22.50
2019-05-26T12:57:57.383Z,22.60
2019-05-26T13:00:26.119Z,22.60
2019-05-26T13:02:54.569Z,22.60
2019-05-26T13:05:23.327Z,22.60
2019-05-26T13:07:51.726Z,22.60
2019-05-26T13:10:20.131Z,22.60
2019-05-26T13:12:48.769Z,22.60
2019-05-26T13:15:18.943Z,22.60
2019-05-26T13:17:47.335Z,22.60
2019-05-26T13:20:16.337Z,22.60
2019-05-26T13:22:44.825Z,22.60
2019-05-26T13:25:15.668Z,22.70
2019-05-26T13:27:44.067Z,22.80
2019-05-26T13:30:15.293Z,22.90
2019-05-26T13:32:43.699Z,23.00
2019-05-26T13:35:12.263Z,23.20
2019-05-26T13:37:40.932Z,23.40
2019-05-26T13:40:09.830Z,23.60
2019-05-26T13:42:38.348Z,23.80
2019-05-26T13:45:21.051Z,24.00
2019-05-26T13:47:38.150Z,24.10
2019-05-26T13:50:08.344Z,24.00
2019-05-26T13:52:36.833Z,24.00
2019-05-26T13:55:08.946Z,24.00
2019-05-26T13:57:37.337Z,24.00
2019-05-26T14:00:07.958Z,24.00
2019-05-26T14:02:36.451Z,24.20
2019-05-26T14:05:08.745Z,24.30
2019-05-26T14:07:37.201Z,24.40
2019-05-26T14:10:07.063Z,24.60
2019-05-26T14:12:35.451Z,24.60
2019-05-26T14:15:06.660Z,24.70
2019-05-26T14:17:38.404Z,24.80
2019-05-26T14:20:07.466Z,24.80
2019-05-26T14:22:35.918Z,24.70
2019-05-26T14:25:05.887Z,24.70
2019-05-26T14:27:34.306Z,24.80
2019-05-26T14:30:03.635Z,25.10
2019-05-26T14:32:32.040Z,25.50
2019-05-26T14:35:00.439Z,26.00
2019-05-26T14:37:28.830Z,26.30
2019-05-26T14:39:57.251Z,26.60
2019-05-26T14:42:25.634Z,26.90
2019-05-26T14:44:54.138Z,27.30
2019-05-26T14:47:22.533Z,27.60
2019-05-26T14:49:50.990Z,27.80
2019-05-26T14:52:19.406Z,28.00
2019-05-26T14:54:47.808Z,28.10
2019-05-26T14:57:16.215Z,28.10
2019-05-26T14:59:44.611Z,28.30
2019-05-26T15:02:13.026Z,28.40
2019-05-26T15:04:41.428Z,28.60
2019-05-26T15:07:10.216Z,28.70
2019-05-26T15:09:38.623Z,28.80
2019-05-26T15:12:07.016Z,28.90
2019-05-26T15:14:35.419Z,28.80
2019-05-26T15:17:03.823Z,28.70
2019-05-26T15:19:32.238Z,28.30
2019-05-26T15:22:00.665Z,27.90
2019-05-26T15:24:29.054Z,27.40
2019-05-26T15:26:57.462Z,27.00
2019-05-26T15:29:25.970Z,26.60
2019-05-26T15:31:54.377Z,26.30
2019-05-26T15:34:22.779Z,26.00
2019-05-26T15:36:51.176Z,25.70
2019-05-26T15:39:19.592Z,25.50
2019-05-26T15:41:47.983Z,25.40
2019-05-26T15:44:16.398Z,25.40
2019-05-26T15:46:44.830Z,25.40
2019-05-26T15:49:13.319Z,25.70
2019-05-26T15:51:41.727Z,25.90
2019-05-26T15:54:10.177Z,26.10
2019-05-26T15:56:38.575Z,26.20
2019-05-26T15:59:06.979Z,26.40
2019-05-26T16:01:35.370Z,26.80
2019-05-26T16:04:04.048Z,27.20
2019-05-26T16:06:32.507Z,27.50
2019-05-26T16:09:00.919Z,27.50
2019-05-26T16:11:29.322Z,27.30
2019-05-26T16:13:57.767Z,27.40
2019-05-26T16:16:40.225Z,27.40
2019-05-26T16:18:56.370Z,27.20
2019-05-26T16:21:28.017Z,26.90
2019-05-26T16:23:55.274Z,26.60
2019-05-26T16:26:23.677Z,26.80
2019-05-26T16:28:52.083Z,27.10
2019-05-26T16:31:21.262Z,27.40
2019-05-26T16:33:49.683Z,27.40
2019-05-26T16:36:21.126Z,27.20
2019-05-26T16:38:48.247Z,26.80
2019-05-26T16:41:16.655Z,26.30
2019-05-26T16:43:45.050Z,25.80
2019-05-26T16:46:13.541Z,25.40
2019-05-26T16:48:41.935Z,25.10
2019-05-26T16:51:10.342Z,24.90
2019-05-26T16:53:38.751Z,24.80
2019-05-26T16:56:07.150Z,24.80
2019-05-26T16:58:35.600Z,24.80
2019-05-26T17:01:04.063Z,24.80
2019-05-26T17:03:32.466Z,24.90
2019-05-26T17:06:08.015Z,25.00
2019-05-26T17:08:31.122Z,25.20
2019-05-26T17:10:59.548Z,25.20
2019-05-26T17:13:27.958Z,25.10
2019-05-26T17:15:56.348Z,25.00
2019-05-26T17:18:24.757Z,25.00
2019-05-26T17:20:53.377Z,25.00
2019-05-26T17:23:21.918Z,24.90
2019-05-26T17:25:50.367Z,24.70
2019-05-26T17:28:18.771Z,24.60
2019-05-26T17:30:47.251Z,24.40
2019-05-26T17:33:15.678Z,24.00
2019-05-26T17:35:44.216Z,23.60
2019-05-26T17:38:12.620Z,23.10
2019-05-26T17:40:41.011Z,22.70
2019-05-26T17:43:09.494Z,22.30
2019-05-26T17:45:37.898Z,21.90
2019-05-26T17:48:06.306Z,21.60
2019-05-26T17:50:34.778Z,21.40
2019-05-26T17:53:03.185Z,21.20
2019-05-26T17:55:31.602Z,21.30
2019-05-26T17:58:00.075Z,21.50
2019-05-26T18:00:28.522Z,21.80
2019-05-26T18:02:56.951Z,22.00
2019-05-26T18:05:25.363Z,22.20
2019-05-26T18:07:53.850Z,22.80
2019-05-26T18:10:22.531Z,23.40
2019-05-26T18:12:50.911Z,24.00
2019-05-26T18:15:19.729Z,24.20
2019-05-26T18:17:48.687Z,23.90
2019-05-26T18:20:17.428Z,23.80
2019-05-26T18:22:45.886Z,23.50
2019-05-26T18:25:14.484Z,23.20
2019-05-26T18:27:42.903Z,22.80
2019-05-26T18:30:11.783Z,22.40
2019-05-26T18:32:40.188Z,22.20
2019-05-26T18:35:08.654Z,21.90
2019-05-26T18:37:37.060Z,21.60
2019-05-26T18:40:08.836Z,21.30
2019-05-26T18:42:37.243Z,21.00
2019-05-26T18:45:06.597Z,20.70
2019-05-26T18:47:34.994Z,20.50
2019-05-26T18:50:04.225Z,20.10
2019-05-26T18:52:32.640Z,19.90
2019-05-26T18:55:01.022Z,19.60
2019-05-26T18:57:29.437Z,19.30
2019-05-26T18:59:57.831Z,19.10
2019-05-26T19:02:26.227Z,18.80
2019-05-26T19:04:54.639Z,18.50
2019-05-26T19:07:23.378Z,18.10
2019-05-26T19:09:51.782Z,17.80
2019-05-26T19:12:20.426Z,17.50
2019-05-26T19:14:48.823Z,17.20
2019-05-26T19:17:17.282Z,16.90
2019-05-26T19:19:45.688Z,16.60
2019-05-26T19:22:14.095Z,16.30
2019-05-26T19:24:42.503Z,16.10
2019-05-26T19:27:10.966Z,15.90
2019-05-26T19:29:39.426Z,15.70
2019-05-26T19:32:07.927Z,15.50
2019-05-26T19:34:36.318Z,15.30
2019-05-26T19:37:04.882Z,15.10
2019-05-26T19:39:33.282Z,14.90
2019-05-26T19:42:01.676Z,14.80
2019-05-26T19:44:30.082Z,14.70
2019-05-26T19:46:58.510Z,14.50
2019-05-26T19:49:26.923Z,14.40
2019-05-26T19:51:55.592Z,14.30
2019-05-26T19:54:24.064Z,14.20
2019-05-26T19:56:52.564Z,14.10
2019-05-26T19:59:21.038Z,14.00
2019-05-26T20:01:49.443Z,13.90
2019-05-26T20:04:17.839Z,13.90
2019-05-26T20:06:46.245Z,13.80
2019-05-26T20:09:14.667Z,13.70
2019-05-26T20:11:43.177Z,13.70
2019-05-26T20:14:11.633Z,13.60
2019-05-26T20:16:40.035Z,13.50
2019-05-26T20:19:08.459Z,13.50
2019-05-26T20:21:36.876Z,13.40
2019-05-26T20:24:05.552Z,13.30
2019-05-26T20:26:34.046Z,13.30
2019-05-26T20:29:02.482Z,13.20
2019-05-26T20:31:30.870Z,13.10
2019-05-26T20:33:59.262Z,13.10
2019-05-26T20:36:27.674Z,13.00
2019-05-26T20:38:56.096Z,12.90
2019-05-26T20:41:24.560Z,12.80
2019-05-26T20:43:52.974Z,12.80
2019-05-26T20:46:21.392Z,12.80
2019-05-26T20:48:49.780Z,12.70
2019-05-26T20:51:18.187Z,12.70
2019-05-26T20:53:46.830Z,12.60
2019-05-26T20:56:15.227Z,12.60
2019-05-26T20:58:44.004Z,12.60
2019-05-26T21:01:12.416Z,12.50
2019-05-26T21:03:40.811Z,12.50
2019-05-26T21:06:09.218Z,12.50
2019-05-26T21:08:37.627Z,12.40
2019-05-26T21:11:06.010Z,12.40
2019-05-26T21:13:34.426Z,12.30
2019-05-26T21:16:02.991Z,12.30
2019-05-26T21:18:31.404Z,12.30
2019-05-26T21:20:59.867Z,12.20
2019-05-26T21:23:28.275Z,12.20
2019-05-26T21:25:56.718Z,12.10
2019-05-26T21:28:25.134Z,12.10
2019-05-26T21:30:53.522Z,12.00
2019-05-26T21:33:21.958Z,11.90
2019-05-26T21:35:50.359Z,11.90
2019-05-26T21:38:18.767Z,11.80
2019-05-26T21:40:47.581Z,11.70
2019-05-26T21:43:15.987Z,11.60
2019-05-26T21:45:44.378Z,11.50
2019-05-26T21:48:12.788Z,11.50
2019-05-26T21:50:41.186Z,11.40
2019-05-26T21:53:09.581Z,11.30
2019-05-26T21:55:38.061Z,11.30
2019-05-26T21:58:06.483Z,11.20
2019-05-26T22:00:41.018Z,11.20
2019-05-26T22:03:09.506Z,11.10
2019-05-26T22:05:37.927Z,11.00
2019-05-26T22:08:06.322Z,11.00
2019-05-26T22:10:34.787Z,10.90
2019-05-26T22:13:03.194Z,10.90
2019-05-26T22:15:31.602Z,10.80
2019-05-26T22:17:59.998Z,10.70
2019-05-26T22:20:28.718Z,10.70
2019-05-26T22:22:57.163Z,10.70
2019-05-26T22:25:25.602Z,10.60
2019-05-26T22:27:54.066Z,10.60
2019-05-26T22:30:22.642Z,10.50
2019-05-26T22:32:51.046Z,10.50
2019-05-26T22:35:19.619Z,10.50
2019-05-26T22:37:48.032Z,10.50
2019-05-26T22:40:17.336Z,10.40
2019-05-26T22:42:45.792Z,10.40
2019-05-26T22:45:14.535Z,10.30
2019-05-26T22:47:42.943Z,10.30
2019-05-26T22:50:11.513Z,10.30
2019-05-26T22:52:39.927Z,10.20
2019-05-26T22:55:08.690Z,10.10
2019-05-26T22:57:37.173Z,10.10
2019-05-26T23:00:10.782Z,10.10
2019-05-26T23:02:39.205Z,10.10
2019-05-26T23:05:08.515Z,10.00
2019-05-26T23:07:38.454Z,10.00
2019-05-26T23:10:07.610Z,10.00
2019-05-26T23:12:36.003Z,9.90
2019-05-26T23:15:09.375Z,9.90
2019-05-26T23:17:37.860Z,9.90
2019-05-26T23:20:07.691Z,9.90
2019-05-26T23:22:36.119Z,9.80
2019-05-26T23:25:05.447Z,9.80
2019-05-26T23:27:33.863Z,9.70
2019-05-26T23:30:02.653Z,9.70
2019-05-26T23:32:31.038Z,9.70
2019-05-26T23:34:59.452Z,9.70
2019-05-26T23:37:27.994Z,9.60
2019-05-26T23:39:56.382Z,9.60
2019-05-26T23:42:24.810Z,9.60
2019-05-26T23:44:53.190Z,9.50
2019-05-26T23:47:21.591Z,9.50
2019-05-26T23:49:49.998Z,9.50
2019-05-26T23:52:19.510Z,9.50
2019-05-26T23:54:48.070Z,9.60
2019-05-26T23:57:16.526Z,9.60
2019-05-26T23:59:44.923Z,9.60
